Time;durP1;ratioP1;P1;durP2;ratioP2;P2;SDS_P1;SDS_P2;PMS_P1;PMS_P2;Temp;Humidity;BMP_temperature;BMP_pressure;BME280_temperature;BME280_humidity;BME280_pressure;Samples;Min_cycle;Max_cycle;Signal;HPM_P1;HPM_P2
2021/06/14 00:00:32;;;;;;;6.40;2.70;;;;;;;12.65;63.81;97624.70;1688883;84;21033;-75
2021/06/14 00:03:01;;;;;;;6.90;2.55;;;;;;;12.65;63.64;97629.15;1688725;83;21124;-76
2021/06/14 00:05:41;;;;;;;4.80;2.85;;;;;;;12.57;63.50;97628.16;1689773;85;21009;-75
2021/06/14 00:08:13;;;;;;;8.80;3.20;;;;;;;12.59;63.70;97626.77;1690869;85;21017;-75
2021/06/14 00:10:41;;;;;;;5.60;2.67;;;;;;;12.56;63.59;97626.44;1691041;84;21061;-76
2021/06/14 00:13:09;;;;;;;3.35;2.52;;;;;;;12.51;63.74;97627.11;1691119;85;21494;-75
2021/06/14 00:15:38;;;;;;;5.60;2.70;;;;;;;12.51;63.73;97623.96;1690583;85;21497;-76
2021/06/14 00:18:06;;;;;;;4.50;2.72;;;;;;;12.47;64.30;97622.39;1690958;85;21498;-75
2021/06/14 00:20:35;;;;;;;6.40;3.00;;;;;;;12.48;63.93;97611.28;1690928;85;21319;-75
2021/06/14 00:23:04;;;;;;;4.45;3.08;;;;;;;12.47;63.67;97610.44;1690820;84;21048;-75
2021/06/14 00:25:32;;;;;;;6.37;2.65;;;;;;;12.49;63.70;97611.22;1690355;85;21041;-75
2021/06/14 00:28:01;;;;;;;5.55;2.87;;;;;;;12.49;63.90;97620.52;1689154;85;21069;-75
2021/06/14 00:30:35;;;;;;;5.80;2.72;;;;;;;12.53;63.90;97613.27;1689210;85;21101;-75
2021/06/14 00:33:04;;;;;;;6.55;3.00;;;;;;;12.54;63.71;97608.34;1689263;85;21044;-75
2021/06/14 00:35:31;;;;;;;6.78;2.50;;;;;;;12.52;63.62;97621.73;1689467;85;21454;-75
2021/06/14 00:37:58;;;;;;;8.65;3.15;;;;;;;12.49;64.13;97621.84;1690939;84;21020;-75
2021/06/14 00:40:25;;;;;;;5.50;2.58;;;;;;;12.50;63.94;97616.08;1691022;85;21092;-75
2021/06/14 00:42:52;;;;;;;5.35;3.20;;;;;;;12.50;63.78;97616.08;1690789;84;21025;-75
2021/06/14 00:45:24;;;;;;;8.15;3.22;;;;;;;12.54;63.78;97615.87;1691047;85;21423;-75
2021/06/14 00:47:52;;;;;;;4.55;2.87;;;;;;;12.53;63.74;97616.80;1690208;85;21064;-75
2021/06/14 00:50:23;;;;;;;8.08;2.67;;;;;;;12.57;63.57;97625.98;1689307;85;21434;-75
2021/06/14 00:52:50;;;;;;;6.60;2.52;;;;;;;12.60;63.54;97621.84;1689813;85;21056;-75
2021/06/14 00:55:18;;;;;;;5.33;2.30;;;;;;;12.60;63.34;97615.20;1690922;85;21421;-76
2021/06/14 00:57:45;;;;;;;7.55;2.50;;;;;;;12.61;63.52;97624.44;1690774;84;21081;-76
2021/06/14 01:00:14;;;;;;;4.55;2.55;;;;;;;12.56;63.45;97616.26;1690566;84;21065;-75
2021/06/14 01:02:42;;;;;;;3.90;2.65;;;;;;;12.60;63.34;97620.52;1690324;85;21009;-75
2021/06/14 01:05:11;;;;;;;4.58;2.55;;;;;;;12.63;63.29;97623.05;1688572;84;21447;-75
2021/06/14 01:07:38;;;;;;;4.55;2.67;;;;;;;12.60;63.56;97626.70;1697532;84;20985;-75
2021/06/14 01:10:08;;;;;;;5.97;2.60;;;;;;;12.64;63.20;97623.44;1697683;84;21020;-76
2021/06/14 01:12:41;;;;;;;2.77;2.27;;;;;;;12.66;63.25;97623.77;1699563;84;20967;-76
2021/06/14 01:15:14;;;;;;;8.00;3.08;;;;;;;12.67;63.51;97629.97;1712567;83;21000;-75
2021/06/14 01:17:51;;;;;;;9.18;2.85;;;;;;;12.66;63.72;97630.87;1712735;84;20952;-75
2021/06/14 01:21:05;;;;;;;5.78;2.60;;;;;;;12.64;63.68;97638.06;1712346;84;21428;-75
2021/06/14 01:24:12;;;;;;;3.02;2.33;;;;;;;12.62;64.03;97632.80;1712866;84;21019;-75
2021/06/14 01:27:01;;;;;;;4.42;2.35;;;;;;;12.57;64.15;97620.67;1711534;84;20981;-76
2021/06/14 01:29:33;;;;;;;5.17;2.47;;;;;;;12.53;64.18;97609.28;1697835;84;21033;-75
2021/06/14 01:32:02;;;;;;;6.80;2.45;;;;;;;12.46;64.51;97613.16;1697503;84;21012;-75
2021/06/14 01:34:33;;;;;;;6.70;3.45;;;;;;;12.45;64.16;97621.58;1697602;84;21020;-76
2021/06/14 01:37:02;;;;;;;8.05;2.42;;;;;;;12.36;64.49;97620.19;1698025;84;20993;-76
2021/06/14 01:39:34;;;;;;;7.40;3.10;;;;;;;12.34;64.78;97616.72;1697450;84;21049;-76
2021/06/14 01:42:05;;;;;;;7.45;3.75;;;;;;;12.34;64.26;97619.86;1698056;84;21036;-75
2021/06/14 01:44:33;;;;;;;7.83;2.35;;;;;;;12.26;64.79;97621.03;1712730;84;21055;-75
2021/06/14 01:47:05;;;;;;;11.43;2.70;;;;;;;12.24;64.34;97612.28;1712670;84;20980;-75
2021/06/14 01:49:33;;;;;;;6.10;2.37;;;;;;;12.24;64.33;97610.95;1712847;84;21007;-74
2021/06/14 01:52:02;;;;;;;4.42;2.22;;;;;;;12.23;64.55;97607.90;1711001;84;21051;-74
2021/06/14 01:54:29;;;;;;;6.95;2.60;;;;;;;12.23;64.77;97611.89;1712593;83;20975;-74
2021/06/14 01:57:01;;;;;;;6.35;2.58;;;;;;;12.21;64.54;97615.53;1711999;84;21015;-75
2021/06/14 01:59:36;;;;;;;5.75;2.90;;;;;;;12.18;65.00;97615.20;1698171;84;21040;-75
2021/06/14 02:02:07;;;;;;;6.75;3.25;;;;;;;12.21;64.78;97609.73;1697421;84;20996;-75
2021/06/14 02:04:39;;;;;;;9.03;3.62;;;;;;;12.21;64.71;97610.22;1687475;84;21088;-75
2021/06/14 02:07:12;;;;;;;8.78;2.75;;;;;;;12.18;64.85;97601.92;1682073;85;21493;-75
2021/06/14 02:09:40;;;;;;;7.50;2.80;;;;;;;12.14;64.97;97622.41;1682614;85;21029;-75
2021/06/14 02:12:09;;;;;;;5.58;2.42;;;;;;;12.16;64.98;97608.23;1682754;85;20997;-75
2021/06/14 02:14:40;;;;;;;6.78;2.50;;;;;;;12.16;64.82;97610.40;1668977;85;21426;-75
2021/06/14 02:17:11;;;;;;;5.90;2.40;;;;;;;12.17;64.90;97604.19;1671325;85;20997;-75
2021/06/14 02:19:45;;;;;;;7.67;3.72;;;;;;;12.14;65.37;97601.16;1682494;85;21442;-75
2021/06/14 02:22:15;;;;;;;5.33;2.72;;;;;;;12.19;65.11;97603.64;1681974;85;21009;-75
2021/06/14 02:24:42;;;;;;;4.40;2.30;;;;;;;12.23;65.42;97610.55;1682757;85;21029;-76
2021/06/14 02:27:12;;;;;;;4.83;2.27;;;;;;;12.22;65.40;97604.85;1682711;85;21005;-76
2021/06/14 02:29:40;;;;;;;12.00;3.25;;;;;;;12.26;65.63;97605.58;1682608;85;21021;-75
2021/06/14 02:32:08;;;;;;;5.80;2.02;;;;;;;12.34;65.68;97608.75;1682675;85;21421;-75
2021/06/14 02:34:36;;;;;;;4.72;2.00;;;;;;;12.36;65.91;97617.53;1673156;85;21043;-75
2021/06/14 02:37:06;;;;;;;6.40;1.80;;;;;;;12.41;65.38;97610.67;1644500;87;21421;-75
2021/06/14 02:39:36;;;;;;;5.92;1.72;;;;;;;12.45;65.13;97616.75;1673614;85;21013;-75
2021/06/14 02:42:05;;;;;;;2.75;1.72;;;;;;;12.50;65.03;97618.25;1680822;85;20985;-75
2021/06/14 02:44:32;;;;;;;5.55;1.85;;;;;;;12.53;64.99;97615.47;1680920;85;21113;-75
2021/06/14 02:47:08;;;;;;;5.03;2.10;;;;;;;12.47;64.83;97601.59;1681113;85;21017;-75
2021/06/14 02:49:35;;;;;;;3.62;2.42;;;;;;;12.51;64.76;97608.02;1680924;85;21057;-75
2021/06/14 02:52:08;;;;;;;5.15;2.10;;;;;;;12.53;64.63;97614.14;1681082;85;21002;-75
2021/06/14 02:54:40;;;;;;;8.03;2.40;;;;;;;12.48;64.56;97605.97;1680954;85;21053;-75
2021/06/14 02:57:13;;;;;;;4.00;2.00;;;;;;;12.46;64.84;97613.16;1680908;85;20993;-75
2021/06/14 02:59:42;;;;;;;5.08;2.30;;;;;;;12.41;65.06;97616.88;1680917;85;21017;-75
2021/06/14 03:02:10;;;;;;;4.25;2.25;;;;;;;12.34;65.98;97621.19;1680937;85;20985;-75
2021/06/14 03:04:37;;;;;;;3.98;1.90;;;;;;;12.26;66.27;97617.05;1697921;83;21030;-74
2021/06/14 03:07:05;;;;;;;4.80;2.00;;;;;;;12.23;66.08;97618.98;1690485;84;20999;-75
2021/06/14 03:09:34;;;;;;;5.03;2.35;;;;;;;12.18;67.13;97616.98;1712630;84;21015;-75
2021/06/14 03:12:02;;;;;;;8.33;2.80;;;;;;;12.15;67.15;97624.62;1690570;84;21435;-75
2021/06/14 03:14:30;;;;;;;2.33;2.12;;;;;;;12.09;68.00;97624.88;1683031;84;21001;-76
2021/06/14 03:16:57;;;;;;;7.12;2.62;;;;;;;12.05;67.81;97624.16;1675692;84;20921;-76
2021/06/14 03:19:26;;;;;;;6.50;2.62;;;;;;;11.95;70.36;97624.08;1709849;84;20984;-75
2021/06/14 03:21:55;;;;;;;4.87;2.20;;;;;;;11.87;70.68;97639.88;1709375;84;20977;-75
2021/06/14 03:24:24;;;;;;;5.50;2.67;;;;;;;11.72;73.74;97631.20;1709249;84;21055;-75
2021/06/14 03:26:52;;;;;;;4.90;2.30;;;;;;;11.65;71.15;97630.58;1697760;84;21051;-76
2021/06/14 03:29:22;;;;;;;6.95;2.60;;;;;;;11.64;71.75;97631.97;1697626;84;21454;-75
2021/06/14 03:31:51;;;;;;;6.95;3.30;;;;;;;11.58;72.46;97633.06;1697511;84;20981;-75
2021/06/14 03:34:21;;;;;;;5.78;3.27;;;;;;;11.57;71.95;97636.64;1697333;84;21041;-75
2021/06/14 03:36:49;;;;;;;5.22;2.50;;;;;;;11.56;72.89;97633.59;1671430;84;21029;-74
2021/06/14 03:39:18;;;;;;;5.08;2.22;;;;;;;11.43;76.51;97632.77;1697042;84;21008;-75
2021/06/14 03:41:47;;;;;;;4.67;2.10;;;;;;;11.45;73.41;97636.22;1698002;84;20997;-75
2021/06/14 03:44:15;;;;;;;5.58;2.22;;;;;;;11.46;73.72;97625.15;1697708;84;21009;-75
2021/06/14 03:46:43;;;;;;;4.40;2.40;;;;;;;11.48;74.65;97636.11;1697658;84;21120;-74
2021/06/14 03:49:09;;;;;;;4.50;2.87;;;;;;;11.43;75.70;97627.46;1697784;84;20988;-75
2021/06/14 03:51:37;;;;;;;2.72;2.08;;;;;;;11.37;76.35;97622.85;1697790;84;21020;-75
2021/06/14 03:54:05;;;;;;;2.62;1.70;;;;;;;11.42;74.61;97630.17;1697680;84;21425;-75
2021/06/14 03:56:34;;;;;;;3.00;1.90;;;;;;;11.41;76.37;97625.31;1697683;84;21040;-75
2021/06/14 03:59:03;;;;;;;3.95;1.87;;;;;;;11.41;75.77;97630.62;1697561;84;21043;-75
2021/06/14 04:01:30;;;;;;;4.47;1.80;;;;;;;11.45;76.58;97635.34;1698243;84;20976;-75
2021/06/14 04:06:45;;;;;;;5.47;2.22;;;;;;;11.47;76.32;97629.52;1696972;84;21071;-75
2021/06/14 04:09:11;;;;;;;6.70;2.27;;;;;;;11.54;75.68;97627.50;1671962;84;21064;-76
2021/06/14 04:11:38;;;;;;;3.87;1.70;;;;;;;11.61;76.00;97633.83;1697711;84;20997;-76
2021/06/14 04:14:05;;;;;;;2.15;1.70;;;;;;;11.67;76.63;97631.37;1697459;84;20993;-75
2021/06/14 04:16:32;;;;;;;2.65;1.72;;;;;;;11.72;76.36;97626.73;1697712;84;21486;-75
2021/06/14 04:18:58;;;;;;;3.08;1.82;;;;;;;11.70;75.73;97637.02;1697732;84;21005;-75
2021/06/14 04:21:25;;;;;;;3.27;2.25;;;;;;;11.71;75.57;97633.47;1697508;84;21039;-75
2021/06/14 04:23:51;;;;;;;4.10;2.58;;;;;;;11.75;75.71;97637.25;1692106;84;21012;-75
2021/06/14 04:26:18;;;;;;;3.25;1.98;;;;;;;11.73;75.28;97630.27;1697423;84;20965;-75
2021/06/14 04:28:44;;;;;;;2.52;2.15;;;;;;;11.72;76.55;97636.03;1709908;84;20996;-76
2021/06/14 04:31:11;;;;;;;4.72;2.27;;;;;;;11.76;76.00;97624.85;1712764;84;21019;-75
2021/06/14 04:33:37;;;;;;;3.15;2.20;;;;;;;11.77;75.79;97642.50;1712834;84;20960;-75
2021/06/14 04:36:05;;;;;;;3.20;1.92;;;;;;;11.64;77.08;97634.17;1698127;84;21000;-74
2021/06/14 04:38:33;;;;;;;3.05;2.08;;;;;;;11.64;76.56;97636.82;1707027;84;21012;-74
2021/06/14 04:41:00;;;;;;;2.80;2.27;;;;;;;11.60;77.99;97630.78;1712126;83;21005;-75
2021/06/14 04:43:27;;;;;;;3.95;2.40;;;;;;;11.61;76.92;97633.83;1697754;84;21035;-75
2021/06/14 04:45:53;;;;;;;5.10;2.27;;;;;;;11.61;77.01;97635.16;1697808;84;21667;-75
2021/06/14 04:48:20;;;;;;;5.53;2.60;;;;;;;11.66;76.68;97640.75;1693996;84;20972;-75
2021/06/14 04:50:47;;;;;;;5.70;2.50;;;;;;;11.69;76.94;97648.12;1697615;84;21049;-76
2021/06/14 04:53:14;;;;;;;3.65;2.30;;;;;;;11.67;77.63;97633.18;1697503;84;21040;-76
2021/06/14 04:55:41;;;;;;;5.28;2.25;;;;;;;11.70;77.64;97636.56;1705083;84;21504;-74
2021/06/14 04:58:08;;;;;;;8.03;2.70;;;;;;;11.75;76.97;97642.56;1712498;83;21322;-74
2021/06/14 05:00:34;;;;;;;3.92;2.37;;;;;;;11.80;77.35;97638.86;1712694;84;20976;-75
2021/06/14 05:03:02;;;;;;;3.52;2.30;;;;;;;11.89;77.46;97635.83;1712592;83;21054;-75
2021/06/14 05:05:29;;;;;;;16.45;8.98;;;;;;;11.95;77.35;97634.70;1712543;84;21000;-75
2021/06/14 05:07:56;;;;;;;5.28;2.80;;;;;;;11.95;77.76;97639.55;1712417;84;21033;-75
2021/06/14 05:10:23;;;;;;;6.45;2.08;;;;;;;11.98;77.56;97647.41;1712386;84;21019;-75
2021/06/14 05:12:49;;;;;;;2.25;2.05;;;;;;;11.97;77.21;97650.12;1712759;83;20996;-75
2021/06/14 05:15:17;;;;;;;4.45;2.80;;;;;;;11.98;78.61;97641.22;1711356;84;20979;-75
2021/06/14 05:17:45;;;;;;;4.58;2.80;;;;;;;11.97;78.24;97644.36;1697593;84;21445;-75
2021/06/14 05:20:13;;;;;;;4.58;2.52;;;;;;;11.96;79.23;97646.59;1697675;84;21059;-75
2021/06/14 05:22:40;;;;;;;4.33;2.05;;;;;;;11.94;78.56;97647.13;1697695;84;21053;-75
2021/06/14 05:25:07;;;;;;;6.42;2.67;;;;;;;11.89;79.21;97641.98;1697732;84;21449;-75
2021/06/14 05:27:34;;;;;;;4.10;2.35;;;;;;;11.91;77.60;97664.98;1697838;84;20981;-75
2021/06/14 05:30:00;;;;;;;4.47;2.30;;;;;;;11.91;79.84;97656.53;1697808;84;20970;-76
2021/06/14 05:32:27;;;;;;;3.83;2.20;;;;;;;11.92;79.00;97659.59;1697719;84;21029;-76
2021/06/14 05:34:54;;;;;;;3.50;2.10;;;;;;;11.96;79.31;97655.04;1697772;84;21421;-76
2021/06/14 05:37:20;;;;;;;2.50;1.90;;;;;;;11.97;79.24;97660.75;1697704;84;21017;-76
2021/06/14 05:39:47;;;;;;;5.85;1.82;;;;;;;12.05;79.73;97663.13;1697747;84;21445;-76
2021/06/14 05:42:13;;;;;;;4.87;1.90;;;;;;;12.15;79.71;97664.47;1697545;84;21013;-75
2021/06/14 05:44:40;;;;;;;2.85;1.80;;;;;;;12.23;79.71;97670.78;1697692;84;21091;-75
2021/06/14 05:47:07;;;;;;;2.00;1.57;;;;;;;12.27;80.04;97669.73;1697475;84;21077;-75
2021/06/14 05:49:33;;;;;;;4.47;1.70;;;;;;;12.33;80.16;97664.64;1697845;84;20969;-75
2021/06/14 05:52:00;;;;;;;2.25;1.60;;;;;;;12.41;80.38;97671.80;1697523;84;21044;-75
2021/06/14 05:54:27;;;;;;;4.55;2.20;;;;;;;12.40;80.02;97674.06;1698210;84;21007;-75
2021/06/14 05:56:54;;;;;;;3.60;2.22;;;;;;;12.43;79.36;97678.39;1699352;84;21441;-76
2021/06/14 05:59:20;;;;;;;4.15;2.47;;;;;;;12.39;78.75;97679.86;1697759;84;21001;-75
2021/06/14 06:01:47;;;;;;;5.33;2.20;;;;;;;12.35;79.18;97686.69;1697561;84;21105;-76
2021/06/14 06:04:14;;;;;;;8.68;3.25;;;;;;;12.32;79.16;97682.81;1697686;84;20941;-76
2021/06/14 06:06:41;;;;;;;4.00;2.60;;;;;;;12.36;78.58;97691.06;1690911;84;21082;-75
2021/06/14 06:09:08;;;;;;;4.17;2.30;;;;;;;12.37;79.16;97695.47;1692061;84;20985;-75
2021/06/14 06:11:34;;;;;;;5.12;2.12;;;;;;;12.29;79.34;97686.47;1690639;84;21396;-75
2021/06/14 06:14:01;;;;;;;2.85;2.05;;;;;;;12.21;78.92;97691.25;1690985;84;20980;-75
2021/06/14 06:16:27;;;;;;;6.78;2.40;;;;;;;12.10;79.03;97696.55;1691501;84;21009;-76
2021/06/14 06:18:54;;;;;;;4.17;2.52;;;;;;;11.99;80.33;97696.94;1692450;84;21411;-75
2021/06/14 06:21:22;;;;;;;3.72;2.30;;;;;;;11.87;80.75;97701.39;1691054;84;20969;-75
2021/06/14 06:23:49;;;;;;;11.00;7.03;;;;;;;11.77;80.74;97702.23;1692024;84;20947;-75
2021/06/14 06:26:15;;;;;;;5.72;3.25;;;;;;;11.72;82.74;97694.92;1687365;84;20971;-75
2021/06/14 06:28:42;;;;;;;4.05;2.67;;;;;;;11.62;82.85;97700.58;1692489;84;20935;-76
2021/06/14 06:31:08;;;;;;;4.85;2.40;;;;;;;11.60;82.63;97701.11;1697224;84;21080;-76
2021/06/14 06:33:37;;;;;;;4.37;2.98;;;;;;;11.50;83.84;97701.03;1682652;85;21131;-77
2021/06/14 06:36:04;;;;;;;4.62;3.15;;;;;;;11.38;83.60;97690.42;1685993;84;21220;-77
2021/06/14 06:38:31;;;;;;;3.65;2.72;;;;;;;11.39;83.60;97704.12;1691925;84;21016;-76
2021/06/14 06:40:57;;;;;;;4.53;2.67;;;;;;;11.42;83.57;97697.34;1694703;84;21013;-76
2021/06/14 06:43:24;;;;;;;2.67;2.17;;;;;;;11.41;84.10;97698.28;1698612;84;20969;-77
2021/06/14 06:45:51;;;;;;;3.72;2.20;;;;;;;11.36;84.55;97702.89;1696540;84;20939;-77
2021/06/14 06:48:18;;;;;;;2.27;1.95;;;;;;;11.30;87.68;97701.33;1690410;84;21003;-76
2021/06/14 06:50:44;;;;;;;3.67;2.27;;;;;;;11.32;86.34;97699.50;1691604;84;20969;-76
2021/06/14 06:53:11;;;;;;;3.40;2.22;;;;;;;11.32;85.26;97706.58;1693065;84;21025;-78
2021/06/14 06:55:38;;;;;;;2.80;1.95;;;;;;;11.36;87.64;97705.55;1690047;84;21419;-77
2021/06/14 06:58:04;;;;;;;2.55;1.77;;;;;;;11.35;86.54;97700.69;1691563;84;21036;-77
2021/06/14 07:00:31;;;;;;;3.72;1.87;;;;;;;11.35;87.79;97706.48;1698174;84;20979;-78
2021/06/14 07:02:58;;;;;;;2.77;1.72;;;;;;;11.36;87.17;97696.27;1690390;84;20980;-77
2021/06/14 07:05:25;;;;;;;1.95;1.50;;;;;;;11.41;87.00;97704.91;1690811;84;21060;-77
2021/06/14 07:07:51;;;;;;;2.20;1.57;;;;;;;11.44;86.32;97707.91;1697512;84;21044;-76
2021/06/14 07:10:18;;;;;;;2.55;1.80;;;;;;;11.51;86.05;97703.23;1697388;84;20993;-76
2021/06/14 07:12:44;;;;;;;4.60;2.17;;;;;;;11.56;86.67;97703.93;1697458;84;21028;-76
2021/06/14 07:15:12;;;;;;;2.52;1.98;;;;;;;11.68;86.11;97707.45;1697428;84;21109;-76
2021/06/14 07:17:44;;;;;;;5.05;2.42;;;;;;;11.85;85.50;97709.90;1697407;84;20954;-76
2021/06/14 07:20:14;;;;;;;2.42;2.02;;;;;;;11.92;85.04;97706.54;1697892;84;21104;-76
2021/06/14 07:22:41;;;;;;;5.62;4.25;;;;;;;12.04;84.84;97709.17;1697853;84;21016;-76
2021/06/14 07:25:10;;;;;;;34.18;22.52;;;;;;;12.13;84.22;97713.67;1698478;84;21068;-77
2021/06/14 07:27:37;;;;;;;3.47;2.10;;;;;;;12.12;84.16;97712.39;1711251;84;21026;-76
2021/06/14 07:30:07;;;;;;;3.35;2.20;;;;;;;12.11;85.39;97710.67;1705048;83;21013;-76
2021/06/14 07:32:33;;;;;;;3.87;1.70;;;;;;;12.17;83.24;97712.23;1697656;84;21009;-78
2021/06/14 07:35:01;;;;;;;4.33;2.40;;;;;;;12.06;84.43;97715.30;1697668;84;21493;-76
2021/06/14 07:37:27;;;;;;;5.05;2.95;;;;;;;12.10;83.74;97716.47;1689846;84;21039;-75
2021/06/14 07:39:54;;;;;;;2.35;2.10;;;;;;;12.10;83.35;97724.44;1692976;84;20997;-75
2021/06/14 07:42:21;;;;;;;7.70;3.08;;;;;;;12.19;83.37;97728.50;1686574;84;21074;-76
2021/06/14 07:44:48;;;;;;;4.15;2.37;;;;;;;12.22;84.50;97720.42;1690254;84;21584;-76
2021/06/14 07:47:15;;;;;;;3.40;2.15;;;;;;;12.24;83.19;97713.23;1689248;84;21384;-75
2021/06/14 07:49:42;;;;;;;2.35;1.90;;;;;;;12.27;82.75;97720.22;1691381;84;21006;-76
2021/06/14 07:52:10;;;;;;;2.55;1.80;;;;;;;12.28;82.56;97720.16;1689443;84;21032;-76
2021/06/14 07:54:37;;;;;;;2.77;1.82;;;;;;;12.30;83.18;97724.09;1694572;84;21016;-75
2021/06/14 07:57:04;;;;;;;2.77;2.02;;;;;;;12.28;82.80;97729.46;1695900;84;21421;-76
2021/06/14 07:59:30;;;;;;;2.40;2.20;;;;;;;12.26;82.14;97730.45;1696012;84;21040;-75
2021/06/14 08:01:57;;;;;;;3.00;2.00;;;;;;;12.27;82.96;97738.37;1696171;84;21103;-77
2021/06/14 08:04:23;;;;;;;2.33;1.70;;;;;;;12.30;82.33;97733.39;1696247;84;20977;-75
2021/06/14 08:06:49;;;;;;;2.62;1.80;;;;;;;12.34;82.73;97738.95;1673460;84;20969;-78
2021/06/14 08:09:20;;;;;;;5.10;2.87;;;;;;;12.28;82.78;97749.84;1675952;85;21029;-78
2021/06/14 08:11:45;;;;;;;33.98;23.10;;;;;;;12.26;82.51;97737.09;1678230;85;21132;-79
2021/06/14 08:14:12;;;;;;;6.83;2.05;;;;;;;12.34;81.63;97744.75;1675484;85;20953;-78
2021/06/14 08:16:41;;;;;;;2.98;1.70;;;;;;;12.40;82.03;97741.83;1675138;85;21367;-75
2021/06/14 08:19:12;;;;;;;3.58;1.67;;;;;;;12.53;82.25;97735.54;1665032;85;21017;-76
2021/06/14 08:26:50;;;;;;;3.85;1.75;;;;;;;12.88;78.72;97747.80;1674460;85;21001;-76
2021/06/14 08:29:17;;;;;;;4.33;2.42;;;;;;;13.04;79.39;97744.50;1670885;85;21636;-77
2021/06/14 08:31:44;;;;;;;3.58;1.60;;;;;;;13.17;77.97;97746.16;1674942;85;21049;-77
2021/06/14 08:34:11;;;;;;;3.67;1.95;;;;;;;13.31;78.56;97746.86;1681486;85;20981;-77
2021/06/14 08:36:40;;;;;;;1.50;1.30;;;;;;;13.45;78.37;97749.77;1679325;85;21395;-78
2021/06/14 08:39:13;;;;;;;2.05;1.65;;;;;;;13.53;76.33;97751.27;1676469;85;20984;-77
2021/06/14 08:41:42;;;;;;;1.95;1.65;;;;;;;13.67;76.48;97750.13;1675659;85;21056;-78
2021/06/14 08:44:10;;;;;;;2.02;1.50;;;;;;;13.72;76.29;97756.59;1676337;85;21395;-75
2021/06/14 08:46:38;;;;;;;5.78;1.60;;;;;;;13.82;75.72;97750.36;1677416;85;21494;-80
2021/06/14 08:49:06;;;;;;;1.57;1.37;;;;;;;13.82;74.04;97751.69;1678754;85;21087;-76
2021/06/14 08:51:35;;;;;;;1.62;1.30;;;;;;;13.81;74.05;97750.84;1674011;85;21658;-77
2021/06/14 08:54:05;;;;;;;2.77;1.80;;;;;;;13.86;73.18;97747.49;1668578;86;21050;-78
2021/06/14 08:56:32;;;;;;;2.27;1.62;;;;;;;14.10;73.35;97753.05;1668216;85;21057;-76
2021/06/14 08:58:59;;;;;;;3.22;1.72;;;;;;;14.23;71.71;97750.66;1672685;85;21001;-77
2021/06/14 09:01:27;;;;;;;3.12;1.40;;;;;;;14.46;73.02;97756.68;1680876;85;21142;-78
2021/06/14 09:03:54;;;;;;;2.20;1.57;;;;;;;14.62;71.90;97748.78;1681455;85;21025;-78
2021/06/14 09:06:21;;;;;;;4.05;1.90;;;;;;;14.65;69.91;97746.82;1681234;85;21013;-77
2021/06/14 09:08:57;;;;;;;2.30;1.50;;;;;;;14.70;70.48;97742.57;1680157;85;21053;-77
2021/06/14 09:11:24;;;;;;;1.95;1.30;;;;;;;14.71;70.45;97745.66;1676790;85;21081;-76
2021/06/14 09:13:54;;;;;;;4.92;1.50;;;;;;;14.71;70.11;97752.78;1677121;85;20989;-77
2021/06/14 09:16:22;;;;;;;1.82;1.57;;;;;;;14.81;69.95;97754.53;1676955;85;20933;-75
2021/06/14 09:18:49;;;;;;;3.62;1.70;;;;;;;14.89;69.65;97748.34;1673203;85;21049;-76
2021/06/14 09:21:18;;;;;;;2.35;1.40;;;;;;;14.93;69.62;97753.92;1678962;85;21029;-77
2021/06/14 09:23:55;;;;;;;2.30;1.32;;;;;;;14.98;69.11;97753.67;1674146;85;21041;-77
2021/06/14 09:26:29;;;;;;;2.37;1.60;;;;;;;15.01;69.18;97760.20;1678198;85;21020;-77
2021/06/14 09:29:12;;;;;;;2.05;1.50;;;;;;;15.05;69.25;97757.77;1676187;85;21020;-76
2021/06/14 09:31:52;;;;;;;2.70;1.50;;;;;;;15.20;69.09;97755.24;1675608;85;21148;-75
2021/06/14 09:34:34;;;;;;;1.65;1.40;;;;;;;15.38;67.15;97756.95;1679625;85;20994;-77
2021/06/14 09:37:04;;;;;;;2.75;1.40;;;;;;;15.54;67.79;97748.95;1674518;85;20981;-77
2021/06/14 09:39:41;;;;;;;1.75;1.40;;;;;;;15.68;66.53;97737.54;1678934;85;20985;-76
2021/06/14 09:42:27;;;;;;;1.87;1.25;;;;;;;15.83;66.45;97745.66;1675855;85;21021;-76
2021/06/14 09:45:07;;;;;;;32.73;24.55;;;;;;;15.96;66.09;97740.06;1652721;86;21084;-76
2021/06/14 09:47:34;;;;;;;3.10;1.47;;;;;;;16.04;64.95;97734.28;1653233;87;21554;-77
2021/06/14 09:50:07;;;;;;;1.67;1.47;;;;;;;15.90;65.19;97732.83;1653227;87;21081;-76
2021/06/14 09:52:34;;;;;;;3.53;1.73;;;;;;;15.92;65.44;97736.27;1654262;86;21025;-76
2021/06/14 09:55:12;;;;;;;4.28;1.62;;;;;;;15.93;65.31;97739.31;1653939;87;21108;-77
2021/06/14 09:57:38;;;;;;;2.52;1.77;;;;;;;15.82;64.65;97734.59;1654303;86;21032;-76
2021/06/14 10:00:16;;;;;;;2.70;1.72;;;;;;;15.55;65.53;97729.34;1654389;87;21053;-77
2021/06/14 10:02:45;;;;;;;4.05;1.55;;;;;;;15.58;66.06;97730.48;1654300;87;21144;-78
2021/06/14 10:05:18;;;;;;;3.95;1.55;;;;;;;15.67;65.92;97721.13;1680726;85;21490;-78
2021/06/14 10:07:49;;;;;;;4.80;1.60;;;;;;;15.94;65.73;97723.23;1714793;83;21043;-75
2021/06/14 10:10:25;;;;;;;3.27;1.87;;;;;;;16.06;64.08;97728.36;1719880;83;21043;-77
2021/06/14 10:12:59;;;;;;;3.35;1.70;;;;;;;16.32;64.46;97722.49;1719990;83;21020;-75
2021/06/14 10:15:33;;;;;;;3.55;1.70;;;;;;;16.58;64.09;97716.09;1720061;83;21046;-75
2021/06/14 10:18:00;;;;;;;1.87;1.60;;;;;;;16.63;62.44;97725.58;1720415;83;21030;-76
2021/06/14 10:20:30;;;;;;;2.10;1.90;;;;;;;16.63;62.82;97728.72;1720161;83;21006;-76
2021/06/14 10:23:00;;;;;;;3.98;1.80;;;;;;;16.81;62.80;97733.45;1720157;83;21471;-77
2021/06/14 10:25:27;;;;;;;2.08;1.62;;;;;;;17.03;62.07;97725.50;1720099;83;21133;-77
2021/06/14 10:27:55;;;;;;;4.83;3.25;;;;;;;17.14;60.70;97722.17;1720215;83;21420;-78
2021/06/14 10:30:24;;;;;;;5.20;3.35;;;;;;;17.18;61.47;97726.89;1720080;83;21023;-77
2021/06/14 10:32:52;;;;;;;2.87;1.50;;;;;;;17.06;60.13;97722.65;1719965;83;21031;-77
2021/06/14 10:35:21;;;;;;;3.47;1.72;;;;;;;17.06;60.97;97716.45;1720261;83;21117;-78
2021/06/14 10:37:51;;;;;;;1.95;1.20;;;;;;;17.05;62.34;97719.59;1720458;83;21149;-77
2021/06/14 10:40:21;;;;;;;2.70;1.30;;;;;;;16.93;61.13;97712.28;1720091;83;21036;-77
2021/06/14 10:42:48;;;;;;;2.40;1.60;;;;;;;16.88;61.38;97714.76;1697584;83;21049;-78
2021/06/14 10:45:24;;;;;;;3.72;1.60;;;;;;;16.92;61.56;97717.23;1719968;83;21475;-76
2021/06/14 10:47:51;;;;;;;3.45;1.50;;;;;;;16.91;61.57;97711.03;1720263;83;21390;-73
2021/06/14 10:50:24;;;;;;;2.72;1.70;;;;;;;16.96;61.97;97713.42;1720254;83;21019;-73
2021/06/14 10:52:51;;;;;;;2.37;1.40;;;;;;;16.96;61.39;97707.60;1720211;83;20980;-71
2021/06/14 10:55:32;;;;;;;3.87;1.50;;;;;;;16.91;61.48;97705.69;1720110;83;21059;-71
2021/06/14 10:58:03;;;;;;;2.98;1.42;;;;;;;16.91;61.84;97712.84;1720244;83;21058;-74
2021/06/14 11:00:35;;;;;;;2.47;1.40;;;;;;;16.92;61.82;97704.72;1719596;83;21091;-72
2021/06/14 11:03:06;;;;;;;4.10;1.72;;;;;;;16.91;61.58;97704.81;1711935;83;20990;-72
2021/06/14 11:05:47;;;;;;;2.30;1.42;;;;;;;16.93;61.36;97710.45;1707480;83;21100;-73
2021/06/14 11:08:18;;;;;;;5.78;1.60;;;;;;;17.04;61.16;97702.27;1727993;82;21014;-73
2021/06/14 11:10:52;;;;;;;2.37;1.67;;;;;;;17.19;59.88;97701.83;1728178;82;21097;-73
2021/06/14 11:13:18;;;;;;;5.62;2.25;;;;;;;17.29;60.50;97705.66;1727473;82;21488;-73
2021/06/14 11:15:48;;;;;;;6.72;5.33;;;;;;;17.63;59.60;97692.83;1728043;83;21043;-73
2021/06/14 11:18:30;;;;;;;2.22;1.80;;;;;;;17.88;59.60;97691.26;1728148;82;21036;-73
2021/06/14 11:21:22;;;;;;;3.62;1.75;;;;;;;18.16;59.95;97689.97;1728021;82;21147;-73
2021/06/14 11:23:50;;;;;;;2.35;1.70;;;;;;;18.28;59.26;97693.20;1728082;83;20993;-73
2021/06/14 11:26:30;;;;;;;2.37;1.92;;;;;;;18.33;59.26;97694.22;1728128;83;21095;-73
2021/06/14 11:28:59;;;;;;;2.05;1.50;;;;;;;18.14;57.99;97695.93;1728287;83;21474;-73
2021/06/14 11:31:29;;;;;;;3.08;1.90;;;;;;;17.91;58.29;97695.09;1728383;82;20977;-74
2021/06/14 11:34:02;;;;;;;4.22;1.70;;;;;;;17.79;58.85;97692.72;1728146;82;21533;-73
2021/06/14 11:36:34;;;;;;;1.87;1.67;;;;;;;17.60;59.27;97694.35;1727928;83;21420;-74
2021/06/14 11:39:15;;;;;;;6.70;2.02;;;;;;;17.37;58.33;97702.50;1728099;83;21066;-74
2021/06/14 11:41:42;;;;;;;2.92;1.77;;;;;;;17.07;57.83;97704.78;1727886;82;21066;-74
2021/06/14 11:44:29;;;;;;;1.82;1.37;;;;;;;16.89;59.21;97704.89;1717257;83;21031;-73
2021/06/14 11:47:19;;;;;;;2.37;1.30;;;;;;;16.84;59.39;97706.98;1725586;83;21027;-73
2021/06/14 11:49:48;;;;;;;3.92;1.55;;;;;;;16.73;59.42;97699.63;1725414;83;21032;-73
2021/06/14 11:52:29;;;;;;;2.55;1.60;;;;;;;16.61;59.65;97707.90;1725497;83;21001;-73